sensor_id;sensor_type;location;lat;lon;timestamp;P1;durP1;ratioP1;P2;durP2;ratioP2
59062;SDS011;44851;45.648;9.004;2022-09-17T00:00:33;0.57;;;0.57;;
59062;SDS011;44851;45.648;9.004;2022-09-17T00:02:59;0.50;;;0.50;;
59062;SDS011;44851;45.648;9.004;2022-09-17T00:05:24;0.97;;;0.70;;
59062;SDS011;44851;45.648;9.004;2022-09-17T00:07:50;1.70;;;0.93;;
59062;SDS011;44851;45.648;9.004;2022-09-17T00:10:15;3.03;;;0.90;;
59062;SDS011;44851;45.648;9.004;2022-09-17T00:12:40;1.23;;;0.60;;
59062;SDS011;44851;45.648;9.004;2022-09-17T00:15:06;0.50;;;0.50;;
59062;SDS011;44851;45.648;9.004;2022-09-17T00:17:31;0.53;;;0.53;;
59062;SDS011;44851;45.648;9.004;2022-09-17T00:19:56;0.50;;;0.50;;
59062;SDS011;44851;45.648;9.004;2022-09-17T00:22:22;0.60;;;0.60;;
59062;SDS011;44851;45.648;9.004;2022-09-17T00:24:47;0.60;;;0.60;;
59062;SDS011;44851;45.648;9.004;2022-09-17T00:27:12;2.40;;;0.80;;
59062;SDS011;44851;45.648;9.004;2022-09-17T00:29:37;0.67;;;0.67;;
59062;SDS011;44851;45.648;9.004;2022-09-17T00:32:03;1.27;;;0.63;;
59062;SDS011;44851;45.648;9.004;2022-09-17T00:34:28;0.37;;;0.33;;
59062;SDS011;44851;45.648;9.004;2022-09-17T00:36:53;0.80;;;0.50;;
59062;SDS011;44851;45.648;9.004;2022-09-17T00:39:18;0.60;;;0.40;;
59062;SDS011;44851;45.648;9.004;2022-09-17T00:41:44;0.63;;;0.60;;
59062;SDS011;44851;45.648;9.004;2022-09-17T00:46:53;0.40;;;0.40;;
59062;SDS011;44851;45.648;9.004;2022-09-17T00:49:22;3.30;;;0.93;;
59062;SDS011;44851;45.648;9.004;2022-09-17T00:54:19;0.30;;;0.30;;
59062;SDS011;44851;45.648;9.004;2022-09-17T00:56:44;1.07;;;0.40;;
59062;SDS011;44851;45.648;9.004;2022-09-17T00:59:10;0.20;;;0.20;;
59062;SDS011;44851;45.648;9.004;2022-09-17T01:01:35;1.17;;;0.40;;
59062;SDS011;44851;45.648;9.004;2022-09-17T01:04:00;0.27;;;0.27;;
59062;SDS011;44851;45.648;9.004;2022-09-17T01:06:44;0.40;;;0.40;;
59062;SDS011;44851;45.648;9.004;2022-09-17T01:12:09;0.20;;;0.20;;
59062;SDS011;44851;45.648;9.004;2022-09-17T01:20:21;0.40;;;0.30;;
59062;SDS011;44851;45.648;9.004;2022-09-17T01:22:53;0.30;;;0.20;;
59062;SDS011;44851;45.648;9.004;2022-09-17T01:28:00;0.30;;;0.30;;
59062;SDS011;44851;45.648;9.004;2022-09-17T01:30:31;0.70;;;0.30;;
59062;SDS011;44851;45.648;9.004;2022-09-17T01:32:59;0.20;;;0.20;;
59062;SDS011;44851;45.648;9.004;2022-09-17T01:35:33;1.07;;;0.30;;
59062;SDS011;44851;45.648;9.004;2022-09-17T01:38:27;0.27;;;0.23;;
59062;SDS011;44851;45.648;9.004;2022-09-17T01:40:58;0.33;;;0.30;;
59062;SDS011;44851;45.648;9.004;2022-09-17T01:43:50;0.30;;;0.30;;
59062;SDS011;44851;45.648;9.004;2022-09-17T01:46:14;0.40;;;0.40;;
59062;SDS011;44851;45.648;9.004;2022-09-17T01:48:43;0.27;;;0.27;;
59062;SDS011;44851;45.648;9.004;2022-09-17T01:51:10;0.50;;;0.40;;
59062;SDS011;44851;45.648;9.004;2022-09-17T01:56:08;0.30;;;0.30;;
59062;SDS011;44851;45.648;9.004;2022-09-17T01:58:35;0.80;;;0.20;;
59062;SDS011;44851;45.648;9.004;2022-09-17T02:01:04;0.23;;;0.10;;
59062;SDS011;44851;45.648;9.004;2022-09-17T02:03:32;0.50;;;0.30;;
59062;SDS011;44851;45.648;9.004;2022-09-17T02:08:25;1.07;;;0.17;;
59062;SDS011;44851;45.648;9.004;2022-09-17T02:10:54;0.20;;;0.20;;
59062;SDS011;44851;45.648;9.004;2022-09-17T02:13:54;0.20;;;0.20;;
59062;SDS011;44851;45.648;9.004;2022-09-17T02:16:45;0.40;;;0.20;;
59062;SDS011;44851;45.648;9.004;2022-09-17T02:21:58;2.63;;;2.00;;
59062;SDS011;44851;45.648;9.004;2022-09-17T02:27:25;4.80;;;3.43;;
59062;SDS011;44851;45.648;9.004;2022-09-17T02:29:51;5.07;;;3.60;;
59062;SDS011;44851;45.648;9.004;2022-09-17T02:32:16;4.23;;;3.20;;
59062;SDS011;44851;45.648;9.004;2022-09-17T02:34:41;6.60;;;4.73;;
59062;SDS011;44851;45.648;9.004;2022-09-17T02:37:07;6.93;;;3.57;;
59062;SDS011;44851;45.648;9.004;2022-09-17T02:39:32;7.70;;;4.10;;
59062;SDS011;44851;45.648;9.004;2022-09-17T02:47:10;10.17;;;5.00;;
59062;SDS011;44851;45.648;9.004;2022-09-17T02:54:38;8.60;;;4.20;;
59062;SDS011;44851;45.648;9.004;2022-09-17T02:59:46;7.23;;;4.60;;
59062;SDS011;44851;45.648;9.004;2022-09-17T03:02:26;9.13;;;4.60;;
59062;SDS011;44851;45.648;9.004;2022-09-17T03:04:52;6.13;;;4.73;;
59062;SDS011;44851;45.648;9.004;2022-09-17T03:07:19;8.83;;;4.90;;
59062;SDS011;44851;45.648;9.004;2022-09-17T03:09:46;11.70;;;5.30;;
59062;SDS011;44851;45.648;9.004;2022-09-17T03:12:11;10.20;;;5.00;;
59062;SDS011;44851;45.648;9.004;2022-09-17T03:14:37;7.47;;;4.00;;
59062;SDS011;44851;45.648;9.004;2022-09-17T03:17:02;6.50;;;4.07;;
59062;SDS011;44851;45.648;9.004;2022-09-17T03:19:28;8.57;;;3.83;;
59062;SDS011;44851;45.648;9.004;2022-09-17T03:21:53;5.10;;;4.00;;
59062;SDS011;44851;45.648;9.004;2022-09-17T03:24:18;5.57;;;4.87;;
59062;SDS011;44851;45.648;9.004;2022-09-17T03:26:43;8.73;;;4.60;;
59062;SDS011;44851;45.648;9.004;2022-09-17T03:29:11;7.17;;;4.60;;
59062;SDS011;44851;45.648;9.004;2022-09-17T03:31:36;5.53;;;3.80;;
59062;SDS011;44851;45.648;9.004;2022-09-17T03:34:01;7.20;;;4.47;;
59062;SDS011;44851;45.648;9.004;2022-09-17T03:36:27;4.63;;;4.13;;
59062;SDS011;44851;45.648;9.004;2022-09-17T03:38:53;11.07;;;4.30;;
59062;SDS011;44851;45.648;9.004;2022-09-17T03:41:18;4.63;;;4.13;;
59062;SDS011;44851;45.648;9.004;2022-09-17T03:43:44;5.00;;;4.03;;
59062;SDS011;44851;45.648;9.004;2022-09-17T03:46:09;5.87;;;3.93;;
59062;SDS011;44851;45.648;9.004;2022-09-17T03:48:34;4.03;;;3.23;;
59062;SDS011;44851;45.648;9.004;2022-09-17T03:51:01;3.83;;;2.67;;
59062;SDS011;44851;45.648;9.004;2022-09-17T03:53:26;2.57;;;2.37;;
59062;SDS011;44851;45.648;9.004;2022-09-17T03:55:51;2.77;;;1.90;;
59062;SDS011;44851;45.648;9.004;2022-09-17T03:58:17;2.77;;;2.30;;
59062;SDS011;44851;45.648;9.004;2022-09-17T04:00:42;2.67;;;2.47;;
59062;SDS011;44851;45.648;9.004;2022-09-17T04:03:07;3.27;;;2.50;;
59062;SDS011;44851;45.648;9.004;2022-09-17T04:05:32;1.70;;;1.60;;
59062;SDS011;44851;45.648;9.004;2022-09-17T04:07:58;2.73;;;2.00;;
59062;SDS011;44851;45.648;9.004;2022-09-17T04:10:23;4.20;;;2.30;;
59062;SDS011;44851;45.648;9.004;2022-09-17T04:12:49;6.63;;;2.30;;
59062;SDS011;44851;45.648;9.004;2022-09-17T04:15:14;2.87;;;2.30;;
59062;SDS011;44851;45.648;9.004;2022-09-17T04:17:39;4.37;;;2.50;;
59062;SDS011;44851;45.648;9.004;2022-09-17T04:20:05;4.27;;;2.20;;
59062;SDS011;44851;45.648;9.004;2022-09-17T04:22:30;3.00;;;2.13;;
59062;SDS011;44851;45.648;9.004;2022-09-17T04:24:56;2.73;;;2.43;;
59062;SDS011;44851;45.648;9.004;2022-09-17T04:27:21;2.60;;;2.20;;
59062;SDS011;44851;45.648;9.004;2022-09-17T04:29:46;4.60;;;2.00;;
59062;SDS011;44851;45.648;9.004;2022-09-17T04:32:11;2.43;;;2.23;;
59062;SDS011;44851;45.648;9.004;2022-09-17T04:34:36;3.73;;;2.23;;
59062;SDS011;44851;45.648;9.004;2022-09-17T04:37:02;5.00;;;2.20;;
59062;SDS011;44851;45.648;9.004;2022-09-17T04:39:27;3.10;;;2.50;;
59062;SDS011;44851;45.648;9.004;2022-09-17T04:41:52;2.73;;;2.33;;
59062;SDS011;44851;45.648;9.004;2022-09-17T04:44:18;3.00;;;2.43;;
59062;SDS011;44851;45.648;9.004;2022-09-17T04:46:43;2.87;;;2.57;;
59062;SDS011;44851;45.648;9.004;2022-09-17T04:49:09;2.50;;;2.30;;
59062;SDS011;44851;45.648;9.004;2022-09-17T04:51:35;2.67;;;2.20;;
59062;SDS011;44851;45.648;9.004;2022-09-17T04:54:00;3.23;;;2.93;;
59062;SDS011;44851;45.648;9.004;2022-09-17T04:56:25;2.00;;;1.80;;
59062;SDS011;44851;45.648;9.004;2022-09-17T04:58:50;2.23;;;2.03;;
59062;SDS011;44851;45.648;9.004;2022-09-17T05:01:16;2.50;;;2.10;;
59062;SDS011;44851;45.648;9.004;2022-09-17T05:03:42;4.07;;;2.47;;
59062;SDS011;44851;45.648;9.004;2022-09-17T05:06:08;3.40;;;2.57;;
59062;SDS011;44851;45.648;9.004;2022-09-17T05:08:33;4.70;;;2.30;;
59062;SDS011;44851;45.648;9.004;2022-09-17T05:10:58;2.60;;;2.40;;
59062;SDS011;44851;45.648;9.004;2022-09-17T05:13:23;2.63;;;2.30;;
59062;SDS011;44851;45.648;9.004;2022-09-17T05:15:49;3.57;;;2.47;;
59062;SDS011;44851;45.648;9.004;2022-09-17T05:18:14;3.30;;;2.73;;
59062;SDS011;44851;45.648;9.004;2022-09-17T05:20:39;3.70;;;2.47;;
59062;SDS011;44851;45.648;9.004;2022-09-17T05:23:04;2.83;;;2.50;;
59062;SDS011;44851;45.648;9.004;2022-09-17T05:25:30;5.10;;;2.57;;
59062;SDS011;44851;45.648;9.004;2022-09-17T05:27:55;2.50;;;2.30;;
59062;SDS011;44851;45.648;9.004;2022-09-17T05:30:20;3.70;;;2.20;;
59062;SDS011;44851;45.648;9.004;2022-09-17T05:32:46;4.53;;;2.50;;
59062;SDS011;44851;45.648;9.004;2022-09-17T05:35:11;3.40;;;2.80;;
59062;SDS011;44851;45.648;9.004;2022-09-17T05:37:36;2.47;;;2.00;;
59062;SDS011;44851;45.648;9.004;2022-09-17T05:40:02;2.50;;;1.23;;
59062;SDS011;44851;45.648;9.004;2022-09-17T05:42:29;2.23;;;0.77;;
59062;SDS011;44851;45.648;9.004;2022-09-17T05:44:54;0.50;;;0.50;;
59062;SDS011;44851;45.648;9.004;2022-09-17T05:47:19;0.40;;;0.40;;
59062;SDS011;44851;45.648;9.004;2022-09-17T05:49:44;1.43;;;0.70;;
59062;SDS011;44851;45.648;9.004;2022-09-17T05:52:10;7.73;;;0.60;;
59062;SDS011;44851;45.648;9.004;2022-09-17T05:54:35;0.77;;;0.53;;
59062;SDS011;44851;45.648;9.004;2022-09-17T05:57:00;1.47;;;0.53;;
59062;SDS011;44851;45.648;9.004;2022-09-17T05:59:25;3.87;;;1.23;;
59062;SDS011;44851;45.648;9.004;2022-09-17T06:01:51;0.50;;;0.50;;
59062;SDS011;44851;45.648;9.004;2022-09-17T06:04:17;0.87;;;0.60;;
59062;SDS011;44851;45.648;9.004;2022-09-17T06:06:42;0.37;;;0.37;;
59062;SDS011;44851;45.648;9.004;2022-09-17T06:09:07;0.67;;;0.50;;
59062;SDS011;44851;45.648;9.004;2022-09-17T06:11:33;0.40;;;0.40;;
59062;SDS011;44851;45.648;9.004;2022-09-17T06:13:58;0.30;;;0.30;;
59062;SDS011;44851;45.648;9.004;2022-09-17T06:16:23;0.30;;;0.30;;
59062;SDS011;44851;45.648;9.004;2022-09-17T06:18:49;0.20;;;0.20;;
59062;SDS011;44851;45.648;9.004;2022-09-17T06:21:14;1.70;;;0.37;;
59062;SDS011;44851;45.648;9.004;2022-09-17T06:23:41;0.40;;;0.40;;
59062;SDS011;44851;45.648;9.004;2022-09-17T06:26:07;0.40;;;0.33;;
59062;SDS011;44851;45.648;9.004;2022-09-17T06:28:33;0.60;;;0.53;;
59062;SDS011;44851;45.648;9.004;2022-09-17T06:30:58;1.00;;;0.53;;
59062;SDS011;44851;45.648;9.004;2022-09-17T06:33:24;1.13;;;0.50;;
59062;SDS011;44851;45.648;9.004;2022-09-17T06:35:57;1.23;;;0.50;;
59062;SDS011;44851;45.648;9.004;2022-09-17T06:38:24;0.57;;;0.30;;
59062;SDS011;44851;45.648;9.004;2022-09-17T06:40:50;0.37;;;0.30;;
59062;SDS011;44851;45.648;9.004;2022-09-17T06:43:16;0.17;;;0.17;;
59062;SDS011;44851;45.648;9.004;2022-09-17T06:45:41;0.70;;;0.70;;
59062;SDS011;44851;45.648;9.004;2022-09-17T06:48:07;0.20;;;0.20;;
59062;SDS011;44851;45.648;9.004;2022-09-17T06:50:32;0.47;;;0.30;;
59062;SDS011;44851;45.648;9.004;2022-09-17T06:52:57;0.20;;;0.20;;
59062;SDS011;44851;45.648;9.004;2022-09-17T06:55:22;2.57;;;0.43;;
59062;SDS011;44851;45.648;9.004;2022-09-17T06:57:48;0.43;;;0.43;;
59062;SDS011;44851;45.648;9.004;2022-09-17T07:00:13;2.67;;;0.67;;
59062;SDS011;44851;45.648;9.004;2022-09-17T07:02:39;2.53;;;0.40;;
59062;SDS011;44851;45.648;9.004;2022-09-17T07:05:04;0.30;;;0.30;;
59062;SDS011;44851;45.648;9.004;2022-09-17T07:07:29;3.13;;;0.30;;
59062;SDS011;44851;45.648;9.004;2022-09-17T07:09:55;0.23;;;0.20;;
59062;SDS011;44851;45.648;9.004;2022-09-17T07:12:20;2.27;;;0.47;;
59062;SDS011;44851;45.648;9.004;2022-09-17T07:14:45;1.50;;;0.43;;
59062;SDS011;44851;45.648;9.004;2022-09-17T07:17:12;0.33;;;0.33;;
59062;SDS011;44851;45.648;9.004;2022-09-17T07:19:37;0.87;;;0.60;;
59062;SDS011;44851;45.648;9.004;2022-09-17T07:22:02;1.13;;;0.30;;
59062;SDS011;44851;45.648;9.004;2022-09-17T07:24:28;1.97;;;0.30;;
59062;SDS011;44851;45.648;9.004;2022-09-17T07:26:53;0.47;;;0.30;;
59062;SDS011;44851;45.648;9.004;2022-09-17T07:29:18;0.20;;;0.20;;
59062;SDS011;44851;45.648;9.004;2022-09-17T07:31:45;0.50;;;0.50;;
59062;SDS011;44851;45.648;9.004;2022-09-17T07:34:12;0.83;;;0.30;;
59062;SDS011;44851;45.648;9.004;2022-09-17T07:36:37;1.57;;;0.50;;
59062;SDS011;44851;45.648;9.004;2022-09-17T07:39:02;1.63;;;0.73;;
59062;SDS011;44851;45.648;9.004;2022-09-17T07:41:28;2.67;;;0.50;;
59062;SDS011;44851;45.648;9.004;2022-09-17T07:43:53;0.40;;;0.40;;
59062;SDS011;44851;45.648;9.004;2022-09-17T07:46:21;0.47;;;0.30;;
59062;SDS011;44851;45.648;9.004;2022-09-17T07:48:47;1.13;;;0.40;;
59062;SDS011;44851;45.648;9.004;2022-09-17T07:51:14;0.47;;;0.47;;
59062;SDS011;44851;45.648;9.004;2022-09-17T07:53:39;0.93;;;0.50;;
59062;SDS011;44851;45.648;9.004;2022-09-17T07:56:05;0.63;;;0.40;;
59062;SDS011;44851;45.648;9.004;2022-09-17T07:58:31;0.50;;;0.33;;
59062;SDS011;44851;45.648;9.004;2022-09-17T08:01:00;0.23;;;0.23;;
59062;SDS011;44851;45.648;9.004;2022-09-17T08:03:26;1.13;;;0.20;;
59062;SDS011;44851;45.648;9.004;2022-09-17T08:05:51;0.20;;;0.20;;
59062;SDS011;44851;45.648;9.004;2022-09-17T08:08:16;0.73;;;0.37;;
59062;SDS011;44851;45.648;9.004;2022-09-17T08:10:42;2.27;;;0.40;;
59062;SDS011;44851;45.648;9.004;2022-09-17T08:13:07;1.27;;;0.30;;
59062;SDS011;44851;45.648;9.004;2022-09-17T08:15:32;3.33;;;0.80;;
59062;SDS011;44851;45.648;9.004;2022-09-17T08:17:57;3.03;;;1.00;;
59062;SDS011;44851;45.648;9.004;2022-09-17T08:20:22;10.17;;;1.20;;
59062;SDS011;44851;45.648;9.004;2022-09-17T08:22:56;5.60;;;1.23;;
59062;SDS011;44851;45.648;9.004;2022-09-17T08:25:21;6.80;;;0.77;;
59062;SDS011;44851;45.648;9.004;2022-09-17T08:27:46;5.10;;;0.77;;
59062;SDS011;44851;45.648;9.004;2022-09-17T08:30:11;0.70;;;0.30;;
59062;SDS011;44851;45.648;9.004;2022-09-17T08:32:37;0.90;;;0.43;;
59062;SDS011;44851;45.648;9.004;2022-09-17T08:35:02;3.17;;;0.60;;
59062;SDS011;44851;45.648;9.004;2022-09-17T08:37:27;1.13;;;0.53;;
59062;SDS011;44851;45.648;9.004;2022-09-17T08:40:19;12.73;;;1.63;;
59062;SDS011;44851;45.648;9.004;2022-09-17T08:42:51;13.27;;;1.20;;
59062;SDS011;44851;45.648;9.004;2022-09-17T08:45:21;5.00;;;0.60;;
59062;SDS011;44851;45.648;9.004;2022-09-17T08:47:47;0.17;;;0.13;;
59062;SDS011;44851;45.648;9.004;2022-09-17T08:50:20;5.50;;;0.50;;
59062;SDS011;44851;45.648;9.004;2022-09-17T08:55:45;1.73;;;0.47;;
59062;SDS011;44851;45.648;9.004;2022-09-17T09:06:26;3.20;;;0.90;;
59062;SDS011;44851;45.648;9.004;2022-09-17T09:09:10;0.67;;;0.30;;
59062;SDS011;44851;45.648;9.004;2022-09-17T09:11:42;1.23;;;0.30;;
59062;SDS011;44851;45.648;9.004;2022-09-17T09:16:51;1.10;;;0.23;;
59062;SDS011;44851;45.648;9.004;2022-09-17T09:19:25;1.10;;;0.50;;
59062;SDS011;44851;45.648;9.004;2022-09-17T09:22:13;0.73;;;0.67;;
59062;SDS011;44851;45.648;9.004;2022-09-17T09:27:42;1.47;;;0.67;;
59062;SDS011;44851;45.648;9.004;2022-09-17T09:30:15;0.53;;;0.47;;
59062;SDS011;44851;45.648;9.004;2022-09-17T09:33:03;1.40;;;0.67;;
59062;SDS011;44851;45.648;9.004;2022-09-17T09:35:40;1.83;;;0.90;;
59062;SDS011;44851;45.648;9.004;2022-09-17T09:41:15;1.57;;;0.67;;
59062;SDS011;44851;45.648;9.004;2022-09-17T09:44:06;0.93;;;0.70;;
59062;SDS011;44851;45.648;9.004;2022-09-17T09:57:21;1.77;;;0.40;;
59062;SDS011;44851;45.648;9.004;2022-09-17T10:00:22;1.20;;;0.37;;
59062;SDS011;44851;45.648;9.004;2022-09-17T10:02:52;2.53;;;0.60;;
59062;SDS011;44851;45.648;9.004;2022-09-17T10:05:34;0.20;;;0.20;;
59062;SDS011;44851;45.648;9.004;2022-09-17T10:08:08;1.07;;;0.60;;
59062;SDS011;44851;45.648;9.004;2022-09-17T10:10:36;5.27;;;0.60;;
59062;SDS011;44851;45.648;9.004;2022-09-17T10:13:17;0.33;;;0.20;;
59062;SDS011;44851;45.648;9.004;2022-09-17T10:15:44;0.63;;;0.57;;
59062;SDS011;44851;45.648;9.004;2022-09-17T10:18:19;0.60;;;0.60;;
59062;SDS011;44851;45.648;9.004;2022-09-17T10:20:56;0.40;;;0.40;;
59062;SDS011;44851;45.648;9.004;2022-09-17T10:23:24;4.67;;;0.70;;
59062;SDS011;44851;45.648;9.004;2022-09-17T10:25:54;0.23;;;0.23;;
59062;SDS011;44851;45.648;9.004;2022-09-17T10:30:58;0.57;;;0.37;;
59062;SDS011;44851;45.648;9.004;2022-09-17T10:33:29;2.43;;;0.33;;
59062;SDS011;44851;45.648;9.004;2022-09-17T10:35:57;3.50;;;0.77;;
59062;SDS011;44851;45.648;9.004;2022-09-17T10:38:29;4.27;;;0.60;;
59062;SDS011;44851;45.648;9.004;2022-09-17T10:41:20;0.47;;;0.47;;
59062;SDS011;44851;45.648;9.004;2022-09-17T10:43:47;3.50;;;0.67;;
59062;SDS011;44851;45.648;9.004;2022-09-17T10:46:34;1.83;;;0.87;;
59062;SDS011;44851;45.648;9.004;2022-09-17T10:51:35;0.57;;;0.30;;
59062;SDS011;44851;45.648;9.004;2022-09-17T10:56:34;7.73;;;1.17;;
59062;SDS011;44851;45.648;9.004;2022-09-17T11:15:05;0.80;;;0.50;;
59062;SDS011;44851;45.648;9.004;2022-09-17T11:17:46;1.00;;;0.43;;
59062;SDS011;44851;45.648;9.004;2022-09-17T11:29:20;0.20;;;0.20;;
59062;SDS011;44851;45.648;9.004;2022-09-17T11:35:09;1.30;;;0.40;;
59062;SDS011;44851;45.648;9.004;2022-09-17T11:37:41;2.37;;;0.70;;
59062;SDS011;44851;45.648;9.004;2022-09-17T11:40:35;0.70;;;0.70;;
59062;SDS011;44851;45.648;9.004;2022-09-17T11:45:49;1.33;;;0.90;;
59062;SDS011;44851;45.648;9.004;2022-09-17T11:48:23;0.97;;;0.90;;
59062;SDS011;44851;45.648;9.004;2022-09-17T11:50:58;4.93;;;1.23;;
59062;SDS011;44851;45.648;9.004;2022-09-17T11:53:31;5.00;;;0.80;;
59062;SDS011;44851;45.648;9.004;2022-09-17T12:09:40;3.60;;;0.80;;
59062;SDS011;44851;45.648;9.004;2022-09-17T12:12:16;2.40;;;0.73;;
59062;SDS011;44851;45.648;9.004;2022-09-17T12:14:45;2.67;;;1.00;;
59062;SDS011;44851;45.648;9.004;2022-09-17T12:17:18;2.17;;;0.97;;
59062;SDS011;44851;45.648;9.004;2022-09-17T12:19:49;3.03;;;0.80;;
59062;SDS011;44851;45.648;9.004;2022-09-17T12:22:29;2.67;;;1.03;;
59062;SDS011;44851;45.648;9.004;2022-09-17T12:24:58;1.23;;;1.10;;
59062;SDS011;44851;45.648;9.004;2022-09-17T12:49:21;1.77;;;0.73;;
59062;SDS011;44851;45.648;9.004;2022-09-17T12:52:06;2.37;;;0.93;;
59062;SDS011;44851;45.648;9.004;2022-09-17T12:58:13;1.40;;;0.63;;
59062;SDS011;44851;45.648;9.004;2022-09-17T13:00:52;1.10;;;0.70;;
59062;SDS011;44851;45.648;9.004;2022-09-17T13:03:39;2.50;;;0.60;;
59062;SDS011;44851;45.648;9.004;2022-09-17T13:09:41;1.13;;;0.73;;
59062;SDS011;44851;45.648;9.004;2022-09-17T13:20:13;0.60;;;0.50;;
59062;SDS011;44851;45.648;9.004;2022-09-17T13:22:55;0.33;;;0.33;;
59062;SDS011;44851;45.648;9.004;2022-09-17T13:25:22;0.30;;;0.30;;
59062;SDS011;44851;45.648;9.004;2022-09-17T13:27:49;4.57;;;0.80;;
59062;SDS011;44851;45.648;9.004;2022-09-17T13:30:31;2.73;;;0.70;;
59062;SDS011;44851;45.648;9.004;2022-09-17T13:36:38;1.70;;;0.53;;
59062;SDS011;44851;45.648;9.004;2022-09-17T13:39:34;1.37;;;0.30;;
59062;SDS011;44851;45.648;9.004;2022-09-17T13:44:40;7.73;;;0.67;;
59062;SDS011;44851;45.648;9.004;2022-09-17T13:47:09;0.40;;;0.20;;
59062;SDS011;44851;45.648;9.004;2022-09-17T13:49:47;0.40;;;0.40;;
59062;SDS011;44851;45.648;9.004;2022-09-17T13:55:05;0.77;;;0.43;;
59062;SDS011;44851;45.648;9.004;2022-09-17T13:57:33;0.23;;;0.23;;
59062;SDS011;44851;45.648;9.004;2022-09-17T14:00:27;0.20;;;0.20;;
59062;SDS011;44851;45.648;9.004;2022-09-17T14:08:30;1.43;;;0.30;;
59062;SDS011;44851;45.648;9.004;2022-09-17T14:13:48;1.53;;;0.23;;
59062;SDS011;44851;45.648;9.004;2022-09-17T14:27:07;0.37;;;0.37;;
59062;SDS011;44851;45.648;9.004;2022-09-17T14:29:52;0.20;;;0.20;;
59062;SDS011;44851;45.648;9.004;2022-09-17T14:35:22;0.40;;;0.30;;
59062;SDS011;44851;45.648;9.004;2022-09-17T14:38:01;5.30;;;0.70;;
59062;SDS011;44851;45.648;9.004;2022-09-17T14:40:32;0.97;;;0.60;;
59062;SDS011;44851;45.648;9.004;2022-09-17T14:42:58;1.80;;;0.20;;
59062;SDS011;44851;45.648;9.004;2022-09-17T14:45:30;0.37;;;0.37;;
59062;SDS011;44851;45.648;9.004;2022-09-17T14:51:09;1.73;;;0.70;;
59062;SDS011;44851;45.648;9.004;2022-09-17T14:53:41;1.37;;;0.90;;
59062;SDS011;44851;45.648;9.004;2022-09-17T14:56:07;1.67;;;1.00;;
59062;SDS011;44851;45.648;9.004;2022-09-17T14:58:36;0.60;;;0.53;;
59062;SDS011;44851;45.648;9.004;2022-09-17T15:01:04;0.40;;;0.40;;
59062;SDS011;44851;45.648;9.004;2022-09-17T15:03:29;3.27;;;0.70;;
59062;SDS011;44851;45.648;9.004;2022-09-17T15:05:55;0.70;;;0.50;;
59062;SDS011;44851;45.648;9.004;2022-09-17T15:08:21;1.53;;;0.50;;
59062;SDS011;44851;45.648;9.004;2022-09-17T15:10:53;0.37;;;0.30;;
59062;SDS011;44851;45.648;9.004;2022-09-17T15:13:20;0.17;;;0.17;;
59062;SDS011;44851;45.648;9.004;2022-09-17T15:15:51;2.90;;;0.40;;
59062;SDS011;44851;45.648;9.004;2022-09-17T15:18:28;1.33;;;0.40;;
59062;SDS011;44851;45.648;9.004;2022-09-17T15:24:00;0.60;;;0.50;;
59062;SDS011;44851;45.648;9.004;2022-09-17T15:26:36;0.23;;;0.23;;
59062;SDS011;44851;45.648;9.004;2022-09-17T15:29:05;0.10;;;0.10;;
59062;SDS011;44851;45.648;9.004;2022-09-17T15:31:34;0.27;;;0.27;;
59062;SDS011;44851;45.648;9.004;2022-09-17T15:34:01;0.30;;;0.30;;
59062;SDS011;44851;45.648;9.004;2022-09-17T15:36:26;0.20;;;0.10;;
59062;SDS011;44851;45.648;9.004;2022-09-17T15:38:54;1.43;;;0.50;;
59062;SDS011;44851;45.648;9.004;2022-09-17T15:41:24;0.40;;;0.40;;
59062;SDS011;44851;45.648;9.004;2022-09-17T15:43:53;0.80;;;0.20;;
59062;SDS011;44851;45.648;9.004;2022-09-17T15:48:56;0.40;;;0.33;;
59062;SDS011;44851;45.648;9.004;2022-09-17T15:54:25;0.30;;;0.30;;
59062;SDS011;44851;45.648;9.004;2022-09-17T15:56:53;0.60;;;0.20;;
59062;SDS011;44851;45.648;9.004;2022-09-17T15:59:27;3.40;;;0.40;;
59062;SDS011;44851;45.648;9.004;2022-09-17T16:01:58;1.43;;;0.30;;
59062;SDS011;44851;45.648;9.004;2022-09-17T16:04:31;0.77;;;0.40;;
59062;SDS011;44851;45.648;9.004;2022-09-17T16:06:58;0.20;;;0.20;;
59062;SDS011;44851;45.648;9.004;2022-09-17T16:12:24;0.30;;;0.30;;
59062;SDS011;44851;45.648;9.004;2022-09-17T16:14:53;0.50;;;0.23;;
59062;SDS011;44851;45.648;9.004;2022-09-17T16:17:22;0.30;;;0.23;;
59062;SDS011;44851;45.648;9.004;2022-09-17T16:20:07;0.63;;;0.20;;
59062;SDS011;44851;45.648;9.004;2022-09-17T16:22:47;0.47;;;0.40;;
59062;SDS011;44851;45.648;9.004;2022-09-17T16:25:13;0.20;;;0.20;;
59062;SDS011;44851;45.648;9.004;2022-09-17T16:30:20;0.30;;;0.30;;
59062;SDS011;44851;45.648;9.004;2022-09-17T16:32:47;0.60;;;0.30;;
59062;SDS011;44851;45.648;9.004;2022-09-17T16:35:16;0.33;;;0.33;;
59062;SDS011;44851;45.648;9.004;2022-09-17T16:37:46;0.30;;;0.23;;
59062;SDS011;44851;45.648;9.004;2022-09-17T16:40:13;0.43;;;0.30;;
59062;SDS011;44851;45.648;9.004;2022-09-17T16:42:38;0.20;;;0.20;;
59062;SDS011;44851;45.648;9.004;2022-09-17T16:45:04;0.40;;;0.40;;
59062;SDS011;44851;45.648;9.004;2022-09-17T16:47:34;0.80;;;0.33;;
59062;SDS011;44851;45.648;9.004;2022-09-17T16:50:02;0.13;;;0.13;;
59062;SDS011;44851;45.648;9.004;2022-09-17T16:52:31;3.30;;;0.70;;
59062;SDS011;44851;45.648;9.004;2022-09-17T16:54:57;0.60;;;0.30;;
59062;SDS011;44851;45.648;9.004;2022-09-17T16:57:22;0.30;;;0.20;;
59062;SDS011;44851;45.648;9.004;2022-09-17T16:59:47;0.40;;;0.30;;
59062;SDS011;44851;45.648;9.004;2022-09-17T17:02:13;0.10;;;0.10;;
59062;SDS011;44851;45.648;9.004;2022-09-17T17:04:38;0.40;;;0.20;;
59062;SDS011;44851;45.648;9.004;2022-09-17T17:07:03;0.30;;;0.30;;
59062;SDS011;44851;45.648;9.004;2022-09-17T17:09:29;0.20;;;0.20;;
59062;SDS011;44851;45.648;9.004;2022-09-17T17:11:54;0.40;;;0.40;;
59062;SDS011;44851;45.648;9.004;2022-09-17T17:14:20;0.20;;;0.20;;
59062;SDS011;44851;45.648;9.004;2022-09-17T17:16:45;0.30;;;0.30;;
59062;SDS011;44851;45.648;9.004;2022-09-17T17:19:11;1.43;;;0.47;;
59062;SDS011;44851;45.648;9.004;2022-09-17T17:21:36;0.40;;;0.40;;
59062;SDS011;44851;45.648;9.004;2022-09-17T17:24:01;0.40;;;0.40;;
59062;SDS011;44851;45.648;9.004;2022-09-17T17:26:27;0.20;;;0.20;;
59062;SDS011;44851;45.648;9.004;2022-09-17T17:28:52;0.20;;;0.20;;
59062;SDS011;44851;45.648;9.004;2022-09-17T17:31:18;1.20;;;0.30;;
59062;SDS011;44851;45.648;9.004;2022-09-17T17:33:43;0.63;;;0.50;;
59062;SDS011;44851;45.648;9.004;2022-09-17T17:36:09;0.37;;;0.27;;
59062;SDS011;44851;45.648;9.004;2022-09-17T17:38:35;1.50;;;0.40;;
59062;SDS011;44851;45.648;9.004;2022-09-17T17:41:05;0.53;;;0.40;;
59062;SDS011;44851;45.648;9.004;2022-09-17T17:43:37;0.43;;;0.40;;
59062;SDS011;44851;45.648;9.004;2022-09-17T17:46:06;1.37;;;0.40;;
59062;SDS011;44851;45.648;9.004;2022-09-17T17:48:33;0.27;;;0.27;;
59062;SDS011;44851;45.648;9.004;2022-09-17T17:51:06;1.90;;;0.60;;
59062;SDS011;44851;45.648;9.004;2022-09-17T17:53:33;0.90;;;0.57;;
59062;SDS011;44851;45.648;9.004;2022-09-17T17:55:59;0.60;;;0.60;;
59062;SDS011;44851;45.648;9.004;2022-09-17T17:58:27;0.30;;;0.20;;
59062;SDS011;44851;45.648;9.004;2022-09-17T18:00:55;0.40;;;0.30;;
59062;SDS011;44851;45.648;9.004;2022-09-17T18:03:21;0.40;;;0.40;;
59062;SDS011;44851;45.648;9.004;2022-09-17T18:05:52;0.30;;;0.17;;
59062;SDS011;44851;45.648;9.004;2022-09-17T18:08:22;1.10;;;0.50;;
59062;SDS011;44851;45.648;9.004;2022-09-17T18:10:55;1.80;;;0.40;;
59062;SDS011;44851;45.648;9.004;2022-09-17T18:13:25;0.40;;;0.40;;
59062;SDS011;44851;45.648;9.004;2022-09-17T18:15:58;0.60;;;0.60;;
59062;SDS011;44851;45.648;9.004;2022-09-17T18:18:28;0.50;;;0.40;;
59062;SDS011;44851;45.648;9.004;2022-09-17T18:20:59;0.43;;;0.40;;
59062;SDS011;44851;45.648;9.004;2022-09-17T18:23:26;1.90;;;0.50;;
59062;SDS011;44851;45.648;9.004;2022-09-17T18:25:55;0.60;;;0.50;;